Time;durP1;ratioP1;P1;durP2;ratioP2;P2;SDS_P1;SDS_P2;PMS_P1;PMS_P2;Temp;Humidity;BMP_temperature;BMP_pressure;BME280_temperature;BME280_humidity;BME280_pressure;Samples;Min_cycle;Max_cycle;Signal;HPM_P1;HPM_P2
2022/09/19 00:01:40;;;;;;;5.60;1.13;;;10.00;99.90;;;;;;5067059;28;20673;-69
2022/09/19 00:04:12;;;;;;;1.80;1.20;;;10.00;99.90;;;;;;5067516;28;20228;-69
2022/09/19 00:06:41;;;;;;;2.27;1.30;;;10.00;99.90;;;;;;5067451;28;20202;-69
2022/09/19 00:09:12;;;;;;;3.03;1.00;;;10.00;99.90;;;;;;5067542;28;20277;-69
2022/09/19 00:11:40;;;;;;;1.10;1.00;;;9.90;99.90;;;;;;5059342;28;20192;-69
2022/09/19 00:14:09;;;;;;;2.77;0.87;;;10.00;99.90;;;;;;5047623;28;20211;-69
2022/09/19 00:16:38;;;;;;;3.40;1.30;;;10.00;99.90;;;;;;5047405;28;20208;-69
2022/09/19 00:19:07;;;;;;;2.13;0.90;;;10.10;99.90;;;;;;5056188;28;20739;-69
2022/09/19 00:21:37;;;;;;;3.77;1.17;;;10.00;99.90;;;;;;5071631;28;20207;-68
2022/09/19 00:26:50;;;;;;;3.67;1.33;;;9.90;99.90;;;;;;5071209;28;20272;-68
2022/09/19 00:29:18;;;;;;;2.37;1.43;;;10.00;99.90;;;;;;5071481;28;20206;-68
2022/09/19 00:31:45;;;;;;;1.90;1.10;;;10.00;99.90;;;;;;5070684;28;20199;-68
2022/09/19 00:34:13;;;;;;;2.20;1.20;;;9.90;99.90;;;;;;5071474;28;20206;-68
2022/09/19 00:36:42;;;;;;;3.03;1.30;;;9.90;99.90;;;;;;5060267;28;20239;-68
2022/09/19 00:39:10;;;;;;;2.40;1.23;;;9.90;99.90;;;;;;5051091;28;20280;-67
2022/09/19 00:41:37;;;;;;;2.70;1.47;;;9.90;99.90;;;;;;5051051;28;20196;-69
2022/09/19 00:44:26;;;;;;;6.47;1.53;;;10.00;99.90;;;;;;5069669;28;20235;-69
2022/09/19 00:46:56;;;;;;;5.47;2.17;;;9.90;99.90;;;;;;5070319;28;20211;-69
2022/09/19 00:49:25;;;;;;;3.37;1.53;;;10.00;99.90;;;;;;5059707;28;20281;-69
2022/09/19 00:51:55;;;;;;;3.50;2.00;;;10.00;99.90;;;;;;5050578;28;20196;-69
2022/09/19 00:54:24;;;;;;;5.00;1.90;;;9.90;99.90;;;;;;5059193;28;20253;-69
2022/09/19 00:56:53;;;;;;;2.10;1.90;;;9.90;99.90;;;;;;5070374;28;20669;-69
2022/09/19 00:59:23;;;;;;;3.07;2.10;;;10.00;99.90;;;;;;5070929;28;20210;-69
2022/09/19 01:01:53;;;;;;;3.87;1.87;;;10.00;99.90;;;;;;5070564;28;20811;-69
2022/09/19 01:04:22;;;;;;;3.53;2.00;;;10.00;99.90;;;;;;5064042;28;20227;-69
2022/09/19 01:06:59;;;;;;;6.83;2.03;;;9.90;99.90;;;;;;5050351;28;20211;-69
2022/09/19 01:09:41;;;;;;;3.00;2.00;;;9.80;99.90;;;;;;5064376;28;20555;-69
2022/09/19 01:12:28;;;;;;;4.13;2.00;;;9.80;99.90;;;;;;5070569;28;20195;-69
2022/09/19 01:15:20;;;;;;;3.63;2.07;;;9.80;99.90;;;;;;5058419;28;20225;-69
2022/09/19 01:17:49;;;;;;;2.70;2.33;;;9.80;99.90;;;;;;5050526;28;20204;-69
2022/09/19 01:20:50;;;;;;;4.07;1.97;;;9.80;99.90;;;;;;5050298;28;20208;-69
2022/09/19 01:23:42;;;;;;;4.40;2.20;;;9.80;99.90;;;;;;5050274;28;20299;-69
2022/09/19 01:26:32;;;;;;;4.13;2.20;;;9.70;99.90;;;;;;5050105;28;20235;-69
2022/09/19 01:29:06;;;;;;;2.40;2.20;;;9.80;99.90;;;;;;5050695;28;20301;-69
2022/09/19 01:31:37;;;;;;;3.60;2.77;;;9.80;99.90;;;;;;5049651;28;20212;-69
2022/09/19 01:34:08;;;;;;;2.50;1.93;;;9.80;99.90;;;;;;5051163;28;20204;-69
2022/09/19 01:36:39;;;;;;;3.17;1.63;;;9.90;99.90;;;;;;5049997;28;20236;-69
2022/09/19 01:39:09;;;;;;;2.00;1.90;;;9.80;99.90;;;;;;5061350;28;20208;-71
2022/09/19 01:41:36;;;;;;;3.27;1.60;;;9.80;99.90;;;;;;5049862;28;20215;-71
2022/09/19 01:44:06;;;;;;;2.03;1.87;;;9.80;99.90;;;;;;5049974;28;20228;-71
2022/09/19 01:46:46;;;;;;;3.70;1.77;;;9.80;99.90;;;;;;5049553;28;20192;-71
2022/09/19 01:49:28;;;;;;;3.43;1.90;;;9.80;99.90;;;;;;5049594;28;20641;-71
2022/09/19 01:52:03;;;;;;;4.63;2.03;;;9.80;99.90;;;;;;5056022;28;20195;-70
2022/09/19 01:54:37;;;;;;;4.03;1.70;;;9.90;99.90;;;;;;5062189;28;20733;-71
2022/09/19 01:57:14;;;;;;;2.90;1.73;;;9.80;99.90;;;;;;5049823;28;20188;-70
2022/09/19 02:00:01;;;;;;;4.50;1.70;;;9.80;99.90;;;;;;5049560;28;20673;-70
2022/09/19 02:02:38;;;;;;;3.90;2.13;;;9.70;99.90;;;;;;5049257;28;20196;-70
2022/09/19 02:05:11;;;;;;;3.57;1.97;;;9.70;99.90;;;;;;5058574;28;20215;-70
2022/09/19 02:07:45;;;;;;;3.73;1.90;;;9.70;99.90;;;;;;5049578;28;20593;-70
2022/09/19 02:10:18;;;;;;;2.40;1.70;;;9.70;99.90;;;;;;5049420;28;20656;-70
2022/09/19 02:12:50;;;;;;;2.40;2.20;;;9.60;99.90;;;;;;5060267;28;20214;-70
2022/09/19 02:15:21;;;;;;;4.33;1.97;;;9.60;99.90;;;;;;5068921;28;20265;-70
2022/09/19 02:17:55;;;;;;;2.17;1.87;;;9.60;99.90;;;;;;5069272;28;20196;-70
2022/09/19 02:20:27;;;;;;;2.60;2.10;;;9.60;99.90;;;;;;5069753;28;20206;-70
2022/09/19 02:22:59;;;;;;;3.17;2.00;;;9.50;99.90;;;;;;5069616;28;20199;-69
2022/09/19 02:25:33;;;;;;;2.90;2.03;;;9.60;99.90;;;;;;5069462;28;20250;-69
2022/09/19 02:28:04;;;;;;;4.63;2.07;;;9.60;99.90;;;;;;5055182;28;20204;-69
2022/09/19 02:30:34;;;;;;;6.00;2.30;;;9.60;99.90;;;;;;5062828;28;20216;-69
2022/09/19 02:33:04;;;;;;;3.47;2.20;;;9.60;99.90;;;;;;5046898;28;21010;-69
2022/09/19 02:35:39;;;;;;;3.53;2.43;;;9.50;99.90;;;;;;5062785;28;20210;-69
2022/09/19 02:38:14;;;;;;;5.23;2.40;;;9.50;99.90;;;;;;5066526;28;20732;-69
2022/09/19 02:40:49;;;;;;;3.07;2.70;;;9.60;99.90;;;;;;5066605;28;20269;-69
2022/09/19 02:43:24;;;;;;;5.83;2.40;;;9.60;99.90;;;;;;5066625;28;20543;-71
2022/09/19 02:45:55;;;;;;;7.87;4.60;;;9.70;99.90;;;;;;5066888;28;20206;-70
2022/09/19 02:48:29;;;;;;;3.50;2.93;;;9.70;99.90;;;;;;5067202;28;20200;-71
2022/09/19 02:50:59;;;;;;;2.83;2.57;;;9.70;99.90;;;;;;5052055;28;20207;-70
2022/09/19 02:53:29;;;;;;;4.47;2.60;;;9.80;99.90;;;;;;5046763;28;20208;-70
2022/09/19 02:55:59;;;;;;;4.20;2.50;;;9.80;99.90;;;;;;5065971;28;20860;-71
2022/09/19 02:58:30;;;;;;;3.07;2.80;;;9.80;99.90;;;;;;5066346;28;20597;-71
2022/09/19 03:01:05;;;;;;;5.60;2.83;;;9.80;99.90;;;;;;5052270;28;20254;-70
2022/09/19 03:06:25;;;;;;;3.63;2.63;;;9.80;99.90;;;;;;5054151;28;20309;-69
2022/09/19 03:08:55;;;;;;;4.27;2.90;;;9.80;99.90;;;;;;5067574;28;20200;-70
2022/09/19 03:11:24;;;;;;;3.07;2.50;;;9.80;99.90;;;;;;5067363;28;20203;-69
2022/09/19 03:13:52;;;;;;;7.43;3.40;;;9.80;99.90;;;;;;5067914;28;21022;-69
2022/09/19 03:16:23;;;;;;;6.80;3.20;;;9.80;99.90;;;;;;5067655;28;20302;-69
2022/09/19 03:18:54;;;;;;;4.47;3.00;;;9.80;99.90;;;;;;5067755;28;20211;-70
2022/09/19 03:21:24;;;;;;;4.70;3.17;;;9.80;99.90;;;;;;5068034;28;20283;-69
2022/09/19 03:23:53;;;;;;;3.40;3.10;;;9.80;99.90;;;;;;5067792;28;20227;-69
2022/09/19 03:26:25;;;;;;;7.37;3.33;;;9.80;99.90;;;;;;5049264;28;20772;-69
2022/09/19 03:28:52;;;;;;;5.50;3.27;;;9.90;99.90;;;;;;5047498;28;20204;-69
2022/09/19 03:31:20;;;;;;;3.97;3.50;;;9.80;99.90;;;;;;5047554;28;20212;-69
2022/09/19 03:33:48;;;;;;;4.87;3.50;;;9.90;99.90;;;;;;5047702;28;20556;-69
2022/09/19 03:36:15;;;;;;;5.33;3.70;;;9.90;99.90;;;;;;5047523;28;20208;-69
2022/09/19 03:38:44;;;;;;;4.83;3.97;;;9.90;99.90;;;;;;5059947;28;20200;-69
2022/09/19 03:41:11;;;;;;;5.40;3.73;;;9.90;99.90;;;;;;5047684;28;20208;-69
2022/09/19 03:43:38;;;;;;;4.97;4.43;;;10.00;99.90;;;;;;5047292;28;20671;-68
2022/09/19 03:46:08;;;;;;;5.30;3.70;;;9.90;99.90;;;;;;5047516;28;20208;-68
2022/09/19 03:48:36;;;;;;;5.67;4.37;;;10.00;99.90;;;;;;5047443;28;20216;-68
2022/09/19 03:51:06;;;;;;;4.43;4.13;;;10.00;99.90;;;;;;5047657;28;20208;-68
2022/09/19 03:53:33;;;;;;;6.47;4.03;;;10.00;99.90;;;;;;5046413;28;20697;-68
2022/09/19 03:59:23;;;;;;;5.17;4.57;;;10.00;99.90;;;;;;5046862;28;20245;-68
2022/09/19 04:01:54;;;;;;;9.00;5.10;;;10.00;99.90;;;;;;5046944;28;20199;-69
2022/09/19 04:04:25;;;;;;;5.87;4.63;;;10.00;99.90;;;;;;5057115;28;20716;-69
2022/09/19 04:06:52;;;;;;;6.47;5.63;;;10.00;99.90;;;;;;5067776;28;20311;-69
2022/09/19 04:09:18;;;;;;;6.27;5.27;;;10.00;99.90;;;;;;5067356;28;20203;-68
2022/09/19 04:11:45;;;;;;;6.53;5.10;;;10.00;99.90;;;;;;5067143;28;20868;-68
2022/09/19 04:14:12;;;;;;;5.93;5.23;;;10.00;99.90;;;;;;5067590;28;20211;-68
2022/09/19 04:16:39;;;;;;;9.10;5.23;;;10.10;99.90;;;;;;5067213;28;20230;-68
2022/09/19 04:19:10;;;;;;;8.80;5.07;;;10.10;99.90;;;;;;5067476;28;20214;-68
2022/09/19 04:21:41;;;;;;;5.97;5.37;;;10.10;99.90;;;;;;5067348;28;20245;-68
2022/09/19 04:24:09;;;;;;;5.80;5.27;;;10.10;99.90;;;;;;5058963;28;20702;-69
2022/09/19 04:26:36;;;;;;;6.13;5.53;;;10.10;99.90;;;;;;5067320;28;20231;-69
2022/09/19 04:29:03;;;;;;;6.50;4.90;;;10.20;99.90;;;;;;5048875;28;20257;-68
2022/09/19 04:31:38;;;;;;;6.70;5.47;;;10.20;99.90;;;;;;5046931;28;20208;-68
2022/09/19 04:34:05;;;;;;;5.50;5.10;;;10.20;99.90;;;;;;5047076;28;20248;-68
2022/09/19 04:36:32;;;;;;;6.93;5.20;;;10.20;99.90;;;;;;5046734;28;20228;-68
2022/09/19 04:39:02;;;;;;;5.40;5.00;;;10.20;99.90;;;;;;5054758;28;20302;-68
2022/09/19 04:41:31;;;;;;;5.63;5.00;;;10.20;99.90;;;;;;5066957;28;20206;-68
2022/09/19 04:43:58;;;;;;;6.10;5.60;;;10.20;99.90;;;;;;5067083;28;20242;-68
2022/09/19 04:46:25;;;;;;;5.90;5.20;;;10.20;99.90;;;;;;5066374;28;20681;-68
2022/09/19 04:48:54;;;;;;;5.43;5.00;;;10.20;99.90;;;;;;5066933;28;20207;-68
2022/09/19 04:51:21;;;;;;;5.47;4.97;;;10.20;99.90;;;;;;5066989;28;20211;-68
2022/09/19 04:53:48;;;;;;;5.70;5.00;;;10.20;99.90;;;;;;5066575;28;20663;-68
2022/09/19 04:56:17;;;;;;;5.30;4.90;;;10.20;99.90;;;;;;5066915;28;20208;-68
2022/09/19 04:58:44;;;;;;;5.77;5.00;;;10.10;99.90;;;;;;5066956;28;20208;-68
2022/09/19 05:01:11;;;;;;;5.40;4.90;;;10.20;99.90;;;;;;5059409;28;20215;-68
2022/09/19 05:03:38;;;;;;;6.83;4.27;;;10.20;99.90;;;;;;5066837;28;20203;-68
2022/09/19 05:06:06;;;;;;;7.27;4.50;;;10.20;99.90;;;;;;5070303;28;20243;-68
2022/09/19 05:08:34;;;;;;;4.57;4.27;;;10.20;99.90;;;;;;5089302;28;20203;-68
2022/09/19 05:11:02;;;;;;;6.30;4.30;;;10.30;99.90;;;;;;5090736;28;20214;-69
2022/09/19 05:13:32;;;;;;;5.57;4.73;;;10.30;99.90;;;;;;5090655;28;20206;-68
2022/09/19 05:16:00;;;;;;;4.47;4.17;;;10.30;99.90;;;;;;5083543;28;20542;-68
2022/09/19 05:18:28;;;;;;;5.67;4.33;;;10.30;99.90;;;;;;5050346;28;20208;-68
2022/09/19 05:20:56;;;;;;;4.43;3.93;;;10.30;99.90;;;;;;5050230;28;20211;-68
2022/09/19 05:23:23;;;;;;;5.47;4.10;;;10.30;99.90;;;;;;5052889;28;20572;-68
2022/09/19 05:25:53;;;;;;;4.27;3.77;;;10.30;99.90;;;;;;5070262;28;20250;-68
2022/09/19 05:28:21;;;;;;;6.43;3.70;;;10.30;99.90;;;;;;5069913;28;20690;-68
2022/09/19 05:30:55;;;;;;;5.57;3.73;;;10.30;99.90;;;;;;5070101;28;20699;-68
2022/09/19 05:33:26;;;;;;;5.80;3.53;;;10.40;99.90;;;;;;5070202;28;20242;-68
2022/09/19 05:35:53;;;;;;;4.00;3.37;;;10.40;99.90;;;;;;5069912;28;20365;-68
2022/09/19 05:38:20;;;;;;;4.20;3.30;;;10.40;99.90;;;;;;5067287;28;20232;-69
2022/09/19 05:40:46;;;;;;;3.10;2.90;;;10.40;99.90;;;;;;5049762;28;20681;-69
2022/09/19 05:43:13;;;;;;;3.27;3.03;;;10.30;99.90;;;;;;5049980;28;20223;-68
2022/09/19 05:45:41;;;;;;;4.27;2.53;;;10.40;99.90;;;;;;5049727;28;20236;-68
2022/09/19 05:48:10;;;;;;;5.00;2.67;;;10.40;99.90;;;;;;5049787;28;20701;-68
2022/09/19 05:50:37;;;;;;;2.90;2.60;;;10.40;99.90;;;;;;5049655;28;20200;-69
2022/09/19 05:55:49;;;;;;;3.57;2.53;;;10.50;99.90;;;;;;5068057;28;20218;-69
2022/09/19 05:58:17;;;;;;;3.10;2.90;;;10.50;99.90;;;;;;5054801;28;20277;-69
2022/09/19 06:00:44;;;;;;;3.47;2.30;;;10.50;99.90;;;;;;5049428;28;20212;-69
2022/09/19 06:03:16;;;;;;;4.50;2.30;;;10.50;99.90;;;;;;5049806;28;20298;-69
2022/09/19 06:05:45;;;;;;;3.63;2.40;;;10.50;99.90;;;;;;5049685;28;20266;-68
2022/09/19 06:08:12;;;;;;;4.17;2.57;;;10.60;99.90;;;;;;5049816;28;20232;-68
2022/09/19 06:10:41;;;;;;;2.83;2.50;;;10.70;99.90;;;;;;5049465;28;20636;-69
2022/09/19 06:13:10;;;;;;;4.57;2.90;;;10.70;99.90;;;;;;5060319;28;20207;-69
2022/09/19 06:15:37;;;;;;;3.57;3.27;;;10.70;99.90;;;;;;5064410;28;20212;-69
2022/09/19 06:18:04;;;;;;;3.10;2.80;;;10.80;99.90;;;;;;5048691;28;20215;-68
2022/09/19 06:20:32;;;;;;;3.37;2.87;;;10.80;99.90;;;;;;5059127;28;20670;-68
2022/09/19 06:23:02;;;;;;;3.13;2.90;;;10.90;99.90;;;;;;5069658;28;20203;-68
2022/09/19 06:25:29;;;;;;;5.30;2.57;;;10.80;99.90;;;;;;5068726;28;20689;-68
2022/09/19 06:27:56;;;;;;;3.10;2.70;;;10.90;99.90;;;;;;5068999;28;20663;-68
2022/09/19 06:30:24;;;;;;;4.20;2.83;;;10.90;99.90;;;;;;5068985;28;20214;-69
2022/09/19 06:32:51;;;;;;;3.30;2.60;;;10.90;99.90;;;;;;5068986;28;20207;-69
2022/09/19 06:35:18;;;;;;;3.00;2.57;;;10.90;99.90;;;;;;5068981;28;20261;-69
2022/09/19 06:37:47;;;;;;;4.10;2.20;;;11.00;99.90;;;;;;5068753;28;20243;-69
2022/09/19 06:40:14;;;;;;;2.93;2.20;;;11.00;99.90;;;;;;5050866;28;20569;-69
2022/09/19 06:42:41;;;;;;;4.37;2.70;;;11.10;99.90;;;;;;5048775;28;20200;-69
2022/09/19 06:45:09;;;;;;;2.97;2.10;;;11.20;99.90;;;;;;5048808;28;20247;-69
2022/09/19 06:47:36;;;;;;;2.50;2.30;;;11.20;99.90;;;;;;5048391;28;20215;-69
2022/09/19 06:50:03;;;;;;;4.13;2.20;;;11.20;99.90;;;;;;5048308;28;20752;-70
2022/09/19 06:52:31;;;;;;;2.50;2.30;;;11.20;99.90;;;;;;5048699;28;20219;-69
2022/09/19 06:54:59;;;;;;;3.73;2.27;;;11.30;99.90;;;;;;5067174;28;20564;-69
2022/09/19 06:57:26;;;;;;;2.70;2.50;;;11.30;99.90;;;;;;5068484;28;20203;-70
2022/09/19 06:59:53;;;;;;;2.40;2.30;;;11.30;99.90;;;;;;5068545;28;20215;-69
2022/09/19 07:02:21;;;;;;;2.10;2.00;;;11.30;99.90;;;;;;5067961;28;20208;-69
2022/09/19 07:04:47;;;;;;;2.30;2.20;;;11.30;99.90;;;;;;5068294;28;20207;-70
2022/09/19 07:07:15;;;;;;;2.13;2.03;;;11.40;99.90;;;;;;5068359;28;20212;-70
2022/09/19 07:09:42;;;;;;;2.40;2.20;;;11.40;99.90;;;;;;5063374;28;20709;-69
2022/09/19 07:12:10;;;;;;;2.47;2.30;;;11.40;99.90;;;;;;5047881;28;20740;-68
2022/09/19 07:14:37;;;;;;;2.97;2.40;;;11.40;99.90;;;;;;5048163;28;20212;-68
2022/09/19 07:17:04;;;;;;;3.47;2.40;;;11.40;99.90;;;;;;5060321;28;20314;-68
2022/09/19 07:19:31;;;;;;;4.43;2.43;;;11.40;99.90;;;;;;5068076;28;20290;-68
2022/09/19 07:21:58;;;;;;;3.10;2.80;;;11.50;99.90;;;;;;5068253;28;20284;-69
2022/09/19 07:24:25;;;;;;;2.60;2.40;;;11.50;99.90;;;;;;5060591;28;20223;-69
2022/09/19 07:26:51;;;;;;;3.50;2.90;;;11.50;99.90;;;;;;5047788;28;20289;-68
2022/09/19 07:29:19;;;;;;;3.80;2.70;;;11.60;99.90;;;;;;5047877;28;20212;-68
2022/09/19 07:31:46;;;;;;;4.53;2.70;;;11.60;99.90;;;;;;5047354;28;20215;-68
2022/09/19 07:34:13;;;;;;;2.50;2.30;;;11.60;99.90;;;;;;5047963;28;20204;-68
2022/09/19 07:36:40;;;;;;;2.80;2.20;;;11.70;99.90;;;;;;5047460;28;20594;-69
2022/09/19 07:39:07;;;;;;;2.43;2.23;;;11.70;99.90;;;;;;5047557;28;20278;-68
2022/09/19 07:41:33;;;;;;;4.63;2.13;;;11.70;99.90;;;;;;5047708;28;20205;-69
2022/09/19 07:44:00;;;;;;;2.50;2.30;;;11.70;99.90;;;;;;5047625;28;20251;-69
2022/09/19 07:46:28;;;;;;;4.17;2.40;;;11.80;99.90;;;;;;5047184;28;20597;-69
2022/09/19 07:48:55;;;;;;;2.10;2.00;;;11.80;99.90;;;;;;5047521;28;20220;-69
2022/09/19 07:51:22;;;;;;;2.50;2.33;;;11.90;99.90;;;;;;5067249;28;20212;-69
2022/09/19 07:53:50;;;;;;;4.03;2.90;;;11.80;99.90;;;;;;5065018;28;20200;-69
2022/09/19 07:56:16;;;;;;;2.80;2.60;;;11.90;99.90;;;;;;5047474;28;20250;-68
2022/09/19 07:58:43;;;;;;;2.80;2.50;;;11.90;99.90;;;;;;5047527;28;20246;-69
2022/09/19 08:01:10;;;;;;;3.73;2.87;;;12.00;99.90;;;;;;5047212;28;20207;-69
2022/09/19 08:03:38;;;;;;;2.70;2.07;;;12.00;99.90;;;;;;5047173;28;20208;-69
2022/09/19 08:06:05;;;;;;;3.13;2.20;;;12.00;99.90;;;;;;5061853;28;20311;-68
2022/09/19 08:08:32;;;;;;;1.93;1.80;;;12.10;99.90;;;;;;5067070;28;20715;-68
2022/09/19 08:11:01;;;;;;;2.53;2.23;;;12.10;99.90;;;;;;5067441;28;20199;-69
2022/09/19 08:13:29;;;;;;;4.23;2.10;;;12.20;99.90;;;;;;5067121;28;20260;-68
2022/09/19 08:15:55;;;;;;;2.57;2.10;;;12.20;99.90;;;;;;5067473;28;20219;-68
2022/09/19 08:18:23;;;;;;;2.27;2.00;;;12.30;99.90;;;;;;5067413;28;20311;-69
2022/09/19 08:20:51;;;;;;;2.37;2.17;;;12.30;99.90;;;;;;5067480;28;20256;-69
2022/09/19 08:23:20;;;;;;;2.97;1.90;;;12.30;99.90;;;;;;5067147;28;20214;-68
2022/09/19 08:25:50;;;;;;;1.87;1.77;;;12.40;99.90;;;;;;5067264;28;20243;-68
2022/09/19 08:28:19;;;;;;;1.83;1.73;;;12.50;99.90;;;;;;5066815;28;20230;-69
2022/09/19 08:30:47;;;;;;;2.70;2.47;;;12.60;99.90;;;;;;5067005;28;20208;-69
2022/09/19 08:33:15;;;;;;;2.63;2.30;;;12.60;99.90;;;;;;5067197;28;20286;-69
2022/09/19 08:35:43;;;;;;;2.37;1.70;;;12.60;99.90;;;;;;5067221;28;20207;-69
2022/09/19 08:38:13;;;;;;;2.77;2.10;;;12.60;99.90;;;;;;5066545;28;20250;-69
2022/09/19 08:41:04;;;;;;;2.53;2.07;;;12.60;99.90;;;;;;5068747;28;20192;-69
2022/09/19 08:43:38;;;;;;;2.70;1.57;;;12.60;99.90;;;;;;5070970;28;20705;-69
2022/09/19 08:46:13;;;;;;;2.03;1.90;;;12.60;99.90;;;;;;5063318;28;20678;-69
2022/09/19 08:48:51;;;;;;;2.17;1.80;;;12.70;99.90;;;;;;5051027;28;20286;-69
2022/09/19 08:51:25;;;;;;;4.33;1.90;;;12.80;99.90;;;;;;5050755;28;20215;-69
2022/09/19 08:54:00;;;;;;;2.43;1.67;;;12.90;99.90;;;;;;5053160;28;20196;-69
2022/09/19 08:56:28;;;;;;;4.10;1.40;;;13.00;99.90;;;;;;5070680;28;20195;-69
2022/09/19 08:58:59;;;;;;;2.17;1.70;;;13.10;99.90;;;;;;5070620;28;20231;-69
2022/09/19 09:01:32;;;;;;;1.70;1.40;;;13.10;99.90;;;;;;5063446;28;20212;-69
2022/09/19 09:04:11;;;;;;;1.70;1.30;;;13.10;99.90;;;;;;5068517;28;20245;-69
2022/09/19 09:06:44;;;;;;;1.80;1.70;;;13.30;99.90;;;;;;5050310;28;20216;-69
2022/09/19 09:09:23;;;;;;;3.97;1.80;;;13.30;99.90;;;;;;5059213;28;20199;-69
2022/09/19 09:12:00;;;;;;;2.43;1.60;;;13.40;99.90;;;;;;5070598;28;20188;-69
2022/09/19 09:14:38;;;;;;;3.77;1.13;;;13.40;99.90;;;;;;5070407;28;20187;-69
2022/09/19 09:17:18;;;;;;;1.10;1.03;;;13.40;99.90;;;;;;5070024;28;20413;-69
2022/09/19 09:20:09;;;;;;;3.23;1.40;;;13.50;99.90;;;;;;5070077;28;20196;-69
2022/09/19 09:22:41;;;;;;;3.30;1.17;;;13.60;99.90;;;;;;5069826;28;20685;-69
2022/09/19 09:25:14;;;;;;;1.30;1.00;;;13.90;99.90;;;;;;5070270;28;20207;-69
2022/09/19 09:27:47;;;;;;;1.70;1.10;;;14.00;99.90;;;;;;5070223;28;20227;-69
2022/09/19 09:30:19;;;;;;;0.97;0.80;;;14.10;99.90;;;;;;5070359;28;20191;-69
2022/09/19 09:32:49;;;;;;;0.93;0.80;;;14.20;99.90;;;;;;5070111;28;20274;-69
2022/09/19 09:35:26;;;;;;;2.97;1.13;;;14.20;99.90;;;;;;5069964;28;20574;-69
2022/09/19 09:37:59;;;;;;;1.40;1.00;;;14.20;99.90;;;;;;5058444;28;20236;-69
2022/09/19 09:43:25;;;;;;;1.20;1.10;;;14.30;99.90;;;;;;5065180;28;20293;-68
2022/09/19 09:45:52;;;;;;;1.67;0.80;;;14.40;99.90;;;;;;5070067;28;20223;-69
2022/09/19 09:48:25;;;;;;;2.37;0.83;;;14.40;99.90;;;;;;5069785;28;20210;-69
2022/09/19 09:51:03;;;;;;;1.53;1.00;;;14.40;99.90;;;;;;5069430;28;20198;-69
2022/09/19 09:53:48;;;;;;;0.77;0.50;;;14.30;99.90;;;;;;5069069;28;20199;-69
2022/09/19 09:56:21;;;;;;;1.30;1.20;;;14.40;99.90;;;;;;5049544;28;20196;-69
2022/09/19 09:58:59;;;;;;;1.50;0.70;;;14.40;99.90;;;;;;5066367;28;20218;-69
2022/09/19 10:04:30;;;;;;;0.87;0.80;;;14.50;99.90;;;;;;5049449;28;20192;-69
2022/09/19 10:07:10;;;;;;;1.40;0.87;;;14.60;99.90;;;;;;5049313;28;20244;-69
2022/09/19 10:09:43;;;;;;;0.80;0.80;;;14.70;99.90;;;;;;5049479;28;20200;-69
2022/09/19 10:12:21;;;;;;;1.27;0.80;;;14.90;99.90;;;;;;5049697;28;20196;-69
2022/09/19 10:14:49;;;;;;;0.60;0.47;;;14.90;99.90;;;;;;5049550;28;20188;-69
2022/09/19 10:17:19;;;;;;;0.67;0.60;;;14.80;99.90;;;;;;5049195;28;20212;-69
2022/09/19 10:19:47;;;;;;;2.30;0.77;;;14.80;99.90;;;;;;5049604;28;20212;-69
2022/09/19 10:22:16;;;;;;;0.93;0.80;;;14.90;99.90;;;;;;5049136;28;20674;-69
2022/09/19 10:24:50;;;;;;;1.60;0.60;;;14.90;99.90;;;;;;5059142;28;20222;-70
2022/09/19 10:27:23;;;;;;;0.87;0.87;;;15.00;99.90;;;;;;5069179;28;20560;-69
2022/09/19 10:29:59;;;;;;;1.23;0.50;;;15.00;99.90;;;;;;5069448;28;20195;-69
2022/09/19 10:32:27;;;;;;;1.37;0.50;;;14.90;99.90;;;;;;5068438;28;20567;-69
2022/09/19 10:34:55;;;;;;;1.73;0.70;;;15.00;99.90;;;;;;5068886;28;20204;-70
2022/09/19 10:37:25;;;;;;;1.13;0.60;;;14.90;99.90;;;;;;5068453;28;20223;-69
2022/09/19 10:39:52;;;;;;;1.33;0.67;;;14.90;99.90;;;;;;5051302;28;20210;-69
2022/09/19 10:42:36;;;;;;;3.53;0.90;;;15.00;99.90;;;;;;5048793;28;20227;-69
2022/09/19 10:45:16;;;;;;;2.83;1.00;;;15.10;99.90;;;;;;5048868;28;20193;-69
2022/09/19 10:47:43;;;;;;;2.20;0.50;;;15.20;99.90;;;;;;5048514;28;20220;-69
2022/09/19 10:50:15;;;;;;;0.63;0.50;;;15.40;99.90;;;;;;5048720;28;20204;-69
2022/09/19 10:52:44;;;;;;;0.63;0.50;;;15.40;99.90;;;;;;5048720;28;20283;-69
2022/09/19 10:55:15;;;;;;;1.13;0.80;;;15.50;99.90;;;;;;5057312;28;20635;-69
2022/09/19 10:57:46;;;;;;;0.60;0.60;;;15.40;99.90;;;;;;5048234;28;20220;-69
2022/09/19 11:00:25;;;;;;;1.43;0.70;;;15.40;99.90;;;;;;5048094;28;20199;-69
2022/09/19 11:02:58;;;;;;;0.63;0.50;;;15.60;99.90;;;;;;5066694;28;20210;-69
2022/09/19 11:05:26;;;;;;;0.40;0.30;;;15.80;99.90;;;;;;5067790;28;20733;-69
2022/09/19 11:07:56;;;;;;;1.40;0.70;;;15.90;99.90;;;;;;5067938;28;20239;-69
2022/09/19 11:10:37;;;;;;;1.07;0.50;;;16.10;99.90;;;;;;5068177;28;20203;-69
2022/09/19 11:13:14;;;;;;;1.50;0.43;;;16.30;99.90;;;;;;5068137;28;20227;-69
2022/09/19 11:16:00;;;;;;;0.70;0.47;;;16.50;99.90;;;;;;5068385;28;20203;-69
2022/09/19 11:18:43;;;;;;;0.50;0.50;;;16.50;99.90;;;;;;5065047;28;20216;-69
2022/09/19 11:21:17;;;;;;;0.97;0.70;;;16.70;99.90;;;;;;5067772;28;20196;-70
2022/09/19 11:23:56;;;;;;;1.33;0.50;;;16.80;99.90;;;;;;5067990;28;20196;-70
2022/09/19 11:26:38;;;;;;;0.80;0.40;;;17.00;99.90;;;;;;5067988;28;20245;-69
2022/09/19 11:29:23;;;;;;;0.53;0.50;;;16.80;99.90;;;;;;5067639;28;20657;-70
2022/09/19 11:32:03;;;;;;;2.57;0.70;;;16.60;99.90;;;;;;5067680;28;20192;-69
2022/09/19 11:34:41;;;;;;;1.40;0.40;;;16.50;99.90;;;;;;5067333;28;20195;-69
2022/09/19 11:37:19;;;;;;;0.67;0.40;;;16.30;99.90;;;;;;5067410;28;20235;-70
2022/09/19 11:40:01;;;;;;;0.43;0.43;;;16.10;99.90;;;;;;5053509;28;20246;-70
2022/09/19 11:42:38;;;;;;;1.67;0.60;;;15.90;99.90;;;;;;5047804;28;20200;-70
2022/09/19 11:45:12;;;;;;;1.17;0.50;;;16.10;99.90;;;;;;5047629;28;20224;-69
2022/09/19 11:48:09;;;;;;;1.37;0.50;;;16.10;99.90;;;;;;5047210;28;20251;-69
2022/09/19 11:51:02;;;;;;;0.63;0.40;;;16.10;99.90;;;;;;5056033;28;20227;-69
2022/09/19 11:53:48;;;;;;;0.43;0.30;;;16.20;99.90;;;;;;5047286;28;20215;-70
2022/09/19 11:56:35;;;;;;;1.57;0.50;;;16.40;99.90;;;;;;5047814;28;20509;-70
2022/09/19 11:59:14;;;;;;;1.27;0.60;;;16.50;99.90;;;;;;5065510;28;20625;-69
2022/09/19 12:01:53;;;;;;;0.93;0.40;;;16.70;99.90;;;;;;5067323;28;20278;-69
2022/09/19 12:04:34;;;;;;;2.00;0.40;;;16.80;99.90;;;;;;5067400;28;20191;-70
2022/09/19 12:07:31;;;;;;;4.50;0.50;;;16.80;99.90;;;;;;5067274;28;20884;-69
2022/09/19 12:10:04;;;;;;;0.47;0.40;;;16.70;99.90;;;;;;5067420;28;20196;-69
2022/09/19 12:12:36;;;;;;;2.33;0.20;;;16.50;99.90;;;;;;5067088;28;20191;-69
2022/09/19 12:15:18;;;;;;;1.30;0.43;;;16.20;99.90;;;;;;5066668;28;20192;-69
2022/09/19 12:17:55;;;;;;;4.00;0.90;;;16.00;99.90;;;;;;5067451;28;20214;-69
2022/09/19 12:20:27;;;;;;;1.53;0.80;;;15.50;99.90;;;;;;5067267;28;20192;-69
2022/09/19 12:22:58;;;;;;;0.97;0.73;;;15.10;99.90;;;;;;5067340;28;20222;-69
2022/09/19 12:25:29;;;;;;;0.60;0.50;;;14.80;99.90;;;;;;5067142;28;20234;-69
2022/09/19 12:28:05;;;;;;;0.60;0.40;;;14.50;99.90;;;;;;5067311;28;20283;-68
2022/09/19 12:30:39;;;;;;;0.40;0.40;;;14.20;99.90;;;;;;5066637;28;20650;-68
2022/09/19 12:33:16;;;;;;;1.73;0.70;;;14.00;99.90;;;;;;5067125;28;20665;-68
2022/09/19 12:35:46;;;;;;;0.40;0.40;;;13.90;99.90;;;;;;5067268;28;20203;-68
2022/09/19 12:38:24;;;;;;;1.07;0.83;;;13.80;99.90;;;;;;5066811;28;20246;-68
2022/09/19 12:40:57;;;;;;;0.50;0.50;;;13.70;99.90;;;;;;5067192;28;20196;-68
2022/09/19 12:43:33;;;;;;;0.70;0.50;;;13.40;99.90;;;;;;5066668;28;20651;-69
2022/09/19 12:46:09;;;;;;;2.13;0.70;;;13.40;99.90;;;;;;5063407;28;20482;-69
2022/09/19 12:48:48;;;;;;;0.57;0.57;;;13.20;99.90;;;;;;5062485;28;20219;-68
2022/09/19 12:51:22;;;;;;;0.50;0.50;;;13.20;99.90;;;;;;5046631;28;20212;-69
2022/09/19 12:53:56;;;;;;;0.97;0.60;;;13.30;99.90;;;;;;5052764;28;20253;-69
2022/09/19 12:56:30;;;;;;;1.50;0.63;;;13.30;99.90;;;;;;5067064;28;20202;-69
2022/09/19 12:59:05;;;;;;;1.43;0.90;;;13.40;99.90;;;;;;5066920;28;20199;-69
2022/09/19 13:01:38;;;;;;;1.27;0.90;;;13.40;99.90;;;;;;5066406;28;20242;-69
2022/09/19 13:04:25;;;;;;;1.07;0.83;;;13.40;99.90;;;;;;5063555;28;20201;-69
2022/09/19 13:06:56;;;;;;;2.00;0.80;;;13.50;99.90;;;;;;5055964;28;20219;-68
2022/09/19 13:09:28;;;;;;;1.70;0.50;;;13.50;99.90;;;;;;5064996;28;20211;-69
2022/09/19 13:11:59;;;;;;;0.77;0.70;;;13.50;99.90;;;;;;5064950;28;20211;-68
2022/09/19 13:14:34;;;;;;;0.60;0.53;;;13.50;99.90;;;;;;5061594;28;20196;-68
2022/09/19 13:25:31;;;;;;;0.90;0.90;;;13.40;99.90;;;;;;5052299;28;20290;-68
2022/09/19 13:28:32;;;;;;;1.10;1.00;;;13.40;99.90;;;;;;5067243;28;20231;-68
2022/09/19 13:31:11;;;;;;;0.80;0.80;;;13.30;99.90;;;;;;5067887;28;20204;-68
2022/09/19 13:33:45;;;;;;;1.20;0.83;;;13.30;99.90;;;;;;5068202;28;20196;-68
2022/09/19 13:36:15;;;;;;;0.80;0.80;;;13.30;99.90;;;;;;5067841;28;20200;-68
2022/09/19 13:38:45;;;;;;;1.77;1.07;;;13.40;99.90;;;;;;5050305;28;20291;-68